sensor_id;sensor_type;location;lat;lon;timestamp;temperature;humidity
17266;DHT22;8749;47.076;15.412;2022-09-20T00:02:20;11.60;99.90
17266;DHT22;8749;47.076;15.412;2022-09-20T00:04:47;11.60;99.90
17266;DHT22;8749;47.076;15.412;2022-09-20T00:07:14;11.60;99.90
17266;DHT22;8749;47.076;15.412;2022-09-20T00:09:41;11.50;99.90
17266;DHT22;8749;47.076;15.412;2022-09-20T00:12:09;11.50;99.90
17266;DHT22;8749;47.076;15.412;2022-09-20T00:14:36;11.50;99.90
17266;DHT22;8749;47.076;15.412;2022-09-20T00:17:03;11.40;99.90
17266;DHT22;8749;47.076;15.412;2022-09-20T00:19:30;11.50;99.90
17266;DHT22;8749;47.076;15.412;2022-09-20T00:21:57;11.60;99.90
17266;DHT22;8749;47.076;15.412;2022-09-20T00:24:24;11.80;99.90
17266;DHT22;8749;47.076;15.412;2022-09-20T00:26:51;11.90;99.90
17266;DHT22;8749;47.076;15.412;2022-09-20T00:29:21;11.90;99.90
17266;DHT22;8749;47.076;15.412;2022-09-20T00:31:48;11.90;99.90
17266;DHT22;8749;47.076;15.412;2022-09-20T00:34:15;11.80;99.90
17266;DHT22;8749;47.076;15.412;2022-09-20T00:36:59;11.80;99.90
17266;DHT22;8749;47.076;15.412;2022-09-20T00:39:26;11.80;99.90
17266;DHT22;8749;47.076;15.412;2022-09-20T00:41:53;11.80;99.90
17266;DHT22;8749;47.076;15.412;2022-09-20T00:44:54;11.70;99.90
17266;DHT22;8749;47.076;15.412;2022-09-20T00:47:27;11.70;99.90
17266;DHT22;8749;47.076;15.412;2022-09-20T00:49:58;11.60;99.90
17266;DHT22;8749;47.076;15.412;2022-09-20T00:52:28;11.50;99.90
17266;DHT22;8749;47.076;15.412;2022-09-20T00:54:55;11.50;99.90
17266;DHT22;8749;47.076;15.412;2022-09-20T00:57:22;11.50;99.90
17266;DHT22;8749;47.076;15.412;2022-09-20T00:59:51;11.60;99.90
17266;DHT22;8749;47.076;15.412;2022-09-20T01:02:23;11.60;99.90
17266;DHT22;8749;47.076;15.412;2022-09-20T01:04:51;11.70;99.90
17266;DHT22;8749;47.076;15.412;2022-09-20T01:07:20;11.80;99.90
17266;DHT22;8749;47.076;15.412;2022-09-20T01:09:48;11.80;99.90
17266;DHT22;8749;47.076;15.412;2022-09-20T01:12:17;11.80;99.90
17266;DHT22;8749;47.076;15.412;2022-09-20T01:14:46;11.90;99.90
17266;DHT22;8749;47.076;15.412;2022-09-20T01:17:14;11.80;99.90
17266;DHT22;8749;47.076;15.412;2022-09-20T01:19:48;11.90;99.90
17266;DHT22;8749;47.076;15.412;2022-09-20T01:22:22;11.80;99.90
17266;DHT22;8749;47.076;15.412;2022-09-20T01:24:57;11.70;99.90
17266;DHT22;8749;47.076;15.412;2022-09-20T01:27:41;11.60;99.90
17266;DHT22;8749;47.076;15.412;2022-09-20T01:30:10;11.60;99.90
17266;DHT22;8749;47.076;15.412;2022-09-20T01:33:01;11.70;99.90
17266;DHT22;8749;47.076;15.412;2022-09-20T01:35:33;11.70;99.90
17266;DHT22;8749;47.076;15.412;2022-09-20T01:38:15;11.60;99.90
17266;DHT22;8749;47.076;15.412;2022-09-20T01:40:55;11.40;99.90
17266;DHT22;8749;47.076;15.412;2022-09-20T01:43:31;11.40;99.90
17266;DHT22;8749;47.076;15.412;2022-09-20T01:46:06;11.40;99.90
17266;DHT22;8749;47.076;15.412;2022-09-20T01:48:38;11.60;99.90
17266;DHT22;8749;47.076;15.412;2022-09-20T01:51:47;11.60;99.90
17266;DHT22;8749;47.076;15.412;2022-09-20T01:54:42;11.70;99.90
17266;DHT22;8749;47.076;15.412;2022-09-20T02:00:20;11.70;99.90
17266;DHT22;8749;47.076;15.412;2022-09-20T02:03:31;11.80;99.90
17266;DHT22;8749;47.076;15.412;2022-09-20T02:06:14;11.80;99.90
17266;DHT22;8749;47.076;15.412;2022-09-20T02:09:19;11.70;99.90
17266;DHT22;8749;47.076;15.412;2022-09-20T02:12:17;11.70;99.90
17266;DHT22;8749;47.076;15.412;2022-09-20T02:14:55;11.80;99.90
17266;DHT22;8749;47.076;15.412;2022-09-20T02:17:31;11.80;99.90
17266;DHT22;8749;47.076;15.412;2022-09-20T02:20:31;11.80;99.90
17266;DHT22;8749;47.076;15.412;2022-09-20T02:23:32;11.90;99.90
17266;DHT22;8749;47.076;15.412;2022-09-20T02:26:29;11.80;99.90
17266;DHT22;8749;47.076;15.412;2022-09-20T02:29:04;11.80;99.90
17266;DHT22;8749;47.076;15.412;2022-09-20T02:31:49;11.60;99.90
17266;DHT22;8749;47.076;15.412;2022-09-20T02:34:43;11.70;99.90
17266;DHT22;8749;47.076;15.412;2022-09-20T02:37:24;11.70;99.90
17266;DHT22;8749;47.076;15.412;2022-09-20T02:40:05;11.50;99.90
17266;DHT22;8749;47.076;15.412;2022-09-20T02:42:35;11.30;99.90
17266;DHT22;8749;47.076;15.412;2022-09-20T02:45:08;11.30;99.90
17266;DHT22;8749;47.076;15.412;2022-09-20T02:47:38;11.20;99.90
17266;DHT22;8749;47.076;15.412;2022-09-20T02:50:22;11.10;99.90
17266;DHT22;8749;47.076;15.412;2022-09-20T02:53:04;11.10;99.90
17266;DHT22;8749;47.076;15.412;2022-09-20T02:55:37;11.10;99.90
17266;DHT22;8749;47.076;15.412;2022-09-20T02:58:22;11.00;99.90
17266;DHT22;8749;47.076;15.412;2022-09-20T03:00:55;11.00;99.90
17266;DHT22;8749;47.076;15.412;2022-09-20T03:03:37;11.00;99.90
17266;DHT22;8749;47.076;15.412;2022-09-20T03:06:12;11.00;99.90
17266;DHT22;8749;47.076;15.412;2022-09-20T03:08:51;11.10;99.90
17266;DHT22;8749;47.076;15.412;2022-09-20T03:11:26;11.20;99.90
17266;DHT22;8749;47.076;15.412;2022-09-20T03:14:08;11.10;99.90
17266;DHT22;8749;47.076;15.412;2022-09-20T03:16:46;11.10;99.90
17266;DHT22;8749;47.076;15.412;2022-09-20T03:19:21;11.00;99.90
17266;DHT22;8749;47.076;15.412;2022-09-20T03:22:01;10.90;99.90
17266;DHT22;8749;47.076;15.412;2022-09-20T03:24:40;11.00;99.90
17266;DHT22;8749;47.076;15.412;2022-09-20T03:27:17;11.00;99.90
17266;DHT22;8749;47.076;15.412;2022-09-20T03:29:55;11.10;99.90
17266;DHT22;8749;47.076;15.412;2022-09-20T03:32:35;11.10;99.90
17266;DHT22;8749;47.076;15.412;2022-09-20T03:35:20;11.10;99.90
17266;DHT22;8749;47.076;15.412;2022-09-20T03:38:08;11.10;99.90
17266;DHT22;8749;47.076;15.412;2022-09-20T03:41:04;11.10;99.90
17266;DHT22;8749;47.076;15.412;2022-09-20T03:43:46;11.20;99.90
17266;DHT22;8749;47.076;15.412;2022-09-20T03:46:21;11.10;99.90
17266;DHT22;8749;47.076;15.412;2022-09-20T03:49:18;11.10;99.90
17266;DHT22;8749;47.076;15.412;2022-09-20T03:51:57;11.00;99.90
17266;DHT22;8749;47.076;15.412;2022-09-20T03:57:55;11.10;99.90
17266;DHT22;8749;47.076;15.412;2022-09-20T04:00:36;11.20;99.90
17266;DHT22;8749;47.076;15.412;2022-09-20T04:03:27;11.30;99.90
17266;DHT22;8749;47.076;15.412;2022-09-20T04:06:13;11.40;99.90
17266;DHT22;8749;47.076;15.412;2022-09-20T04:09:24;11.40;99.90
17266;DHT22;8749;47.076;15.412;2022-09-20T04:12:00;11.30;99.90
17266;DHT22;8749;47.076;15.412;2022-09-20T04:14:36;11.30;99.90
17266;DHT22;8749;47.076;15.412;2022-09-20T04:17:20;11.30;99.90
17266;DHT22;8749;47.076;15.412;2022-09-20T04:19:55;11.30;99.90
17266;DHT22;8749;47.076;15.412;2022-09-20T04:22:25;11.40;99.90
17266;DHT22;8749;47.076;15.412;2022-09-20T04:24:58;11.30;99.90
17266;DHT22;8749;47.076;15.412;2022-09-20T04:27:28;11.40;99.90
17266;DHT22;8749;47.076;15.412;2022-09-20T04:30:02;11.50;99.90
17266;DHT22;8749;47.076;15.412;2022-09-20T04:32:34;11.50;99.90
17266;DHT22;8749;47.076;15.412;2022-09-20T04:35:13;11.60;99.90
17266;DHT22;8749;47.076;15.412;2022-09-20T04:38:02;11.60;99.90
17266;DHT22;8749;47.076;15.412;2022-09-20T04:40:46;11.70;99.90
17266;DHT22;8749;47.076;15.412;2022-09-20T04:43:40;11.70;99.90
17266;DHT22;8749;47.076;15.412;2022-09-20T04:46:40;11.70;99.90
17266;DHT22;8749;47.076;15.412;2022-09-20T04:52:48;11.60;99.90
17266;DHT22;8749;47.076;15.412;2022-09-20T04:55:43;11.60;99.90
17266;DHT22;8749;47.076;15.412;2022-09-20T04:58:42;11.60;99.90
17266;DHT22;8749;47.076;15.412;2022-09-20T05:01:34;11.60;99.90
17266;DHT22;8749;47.076;15.412;2022-09-20T05:04:36;11.50;99.90
17266;DHT22;8749;47.076;15.412;2022-09-20T05:07:45;11.60;99.90
17266;DHT22;8749;47.076;15.412;2022-09-20T05:10:42;11.60;99.90
17266;DHT22;8749;47.076;15.412;2022-09-20T05:13:26;11.60;99.90
17266;DHT22;8749;47.076;15.412;2022-09-20T05:15:57;11.70;99.90
17266;DHT22;8749;47.076;15.412;2022-09-20T05:21:48;11.70;99.90
17266;DHT22;8749;47.076;15.412;2022-09-20T05:24:40;11.80;99.90
17266;DHT22;8749;47.076;15.412;2022-09-20T05:27:21;11.80;99.90
17266;DHT22;8749;47.076;15.412;2022-09-20T05:30:01;11.80;99.90
17266;DHT22;8749;47.076;15.412;2022-09-20T05:32:38;11.80;99.90
17266;DHT22;8749;47.076;15.412;2022-09-20T05:35:13;11.80;99.90
17266;DHT22;8749;47.076;15.412;2022-09-20T05:37:48;11.80;99.90
17266;DHT22;8749;47.076;15.412;2022-09-20T05:40:24;11.90;99.90
17266;DHT22;8749;47.076;15.412;2022-09-20T05:42:58;12.00;99.90
17266;DHT22;8749;47.076;15.412;2022-09-20T05:45:45;12.00;99.90
17266;DHT22;8749;47.076;15.412;2022-09-20T05:48:15;12.10;99.90
17266;DHT22;8749;47.076;15.412;2022-09-20T05:50:50;12.20;99.90
17266;DHT22;8749;47.076;15.412;2022-09-20T05:56:29;12.20;99.90
17266;DHT22;8749;47.076;15.412;2022-09-20T05:59:10;12.30;99.90
17266;DHT22;8749;47.076;15.412;2022-09-20T06:01:44;12.30;99.90
17266;DHT22;8749;47.076;15.412;2022-09-20T06:04:15;12.20;99.90
17266;DHT22;8749;47.076;15.412;2022-09-20T06:06:53;12.30;99.90
17266;DHT22;8749;47.076;15.412;2022-09-20T06:09:43;12.40;99.90
17266;DHT22;8749;47.076;15.412;2022-09-20T06:12:24;12.40;99.90
17266;DHT22;8749;47.076;15.412;2022-09-20T06:14:56;12.40;99.90
17266;DHT22;8749;47.076;15.412;2022-09-20T06:17:29;12.40;99.90
17266;DHT22;8749;47.076;15.412;2022-09-20T06:20:12;12.30;99.90
17266;DHT22;8749;47.076;15.412;2022-09-20T06:22:44;12.20;99.90
17266;DHT22;8749;47.076;15.412;2022-09-20T06:25:17;12.10;99.90
17266;DHT22;8749;47.076;15.412;2022-09-20T06:27:50;12.00;99.90
17266;DHT22;8749;47.076;15.412;2022-09-20T06:30:21;12.00;99.90
17266;DHT22;8749;47.076;15.412;2022-09-20T06:32:58;12.00;99.90
17266;DHT22;8749;47.076;15.412;2022-09-20T06:35:33;12.00;99.90
17266;DHT22;8749;47.076;15.412;2022-09-20T06:38:16;12.00;99.90
17266;DHT22;8749;47.076;15.412;2022-09-20T06:41:07;12.00;99.90
17266;DHT22;8749;47.076;15.412;2022-09-20T06:43:53;12.00;99.90
17266;DHT22;8749;47.076;15.412;2022-09-20T06:46:23;11.90;99.90
17266;DHT22;8749;47.076;15.412;2022-09-20T06:48:50;11.90;99.90
17266;DHT22;8749;47.076;15.412;2022-09-20T06:51:17;12.00;99.90
17266;DHT22;8749;47.076;15.412;2022-09-20T06:53:45;12.10;99.90
17266;DHT22;8749;47.076;15.412;2022-09-20T06:56:16;12.20;99.90
17266;DHT22;8749;47.076;15.412;2022-09-20T06:58:44;12.30;99.90
17266;DHT22;8749;47.076;15.412;2022-09-20T07:01:11;12.40;99.90
17266;DHT22;8749;47.076;15.412;2022-09-20T07:03:38;12.60;99.90
17266;DHT22;8749;47.076;15.412;2022-09-20T07:06:06;12.60;99.90
17266;DHT22;8749;47.076;15.412;2022-09-20T07:08:34;12.70;99.90
17266;DHT22;8749;47.076;15.412;2022-09-20T07:11:05;12.70;99.90
17266;DHT22;8749;47.076;15.412;2022-09-20T07:13:35;12.70;99.90
17266;DHT22;8749;47.076;15.412;2022-09-20T07:16:03;12.80;99.90
17266;DHT22;8749;47.076;15.412;2022-09-20T07:18:31;12.80;99.90
17266;DHT22;8749;47.076;15.412;2022-09-20T07:20:58;12.90;99.90
17266;DHT22;8749;47.076;15.412;2022-09-20T07:23:26;12.90;99.90
17266;DHT22;8749;47.076;15.412;2022-09-20T07:25:54;13.10;99.90
17266;DHT22;8749;47.076;15.412;2022-09-20T07:28:25;13.10;99.90
17266;DHT22;8749;47.076;15.412;2022-09-20T07:30:53;13.20;99.90
17266;DHT22;8749;47.076;15.412;2022-09-20T07:33:20;13.30;99.90
17266;DHT22;8749;47.076;15.412;2022-09-20T07:35:50;13.30;99.90
17266;DHT22;8749;47.076;15.412;2022-09-20T07:38:18;13.40;99.90
17266;DHT22;8749;47.076;15.412;2022-09-20T07:40:45;13.50;99.90
17266;DHT22;8749;47.076;15.412;2022-09-20T07:43:19;13.50;99.90
17266;DHT22;8749;47.076;15.412;2022-09-20T07:45:49;13.60;99.90
17266;DHT22;8749;47.076;15.412;2022-09-20T07:48:21;13.70;99.90
17266;DHT22;8749;47.076;15.412;2022-09-20T07:50:50;13.90;99.90
17266;DHT22;8749;47.076;15.412;2022-09-20T07:53:18;14.00;99.90
17266;DHT22;8749;47.076;15.412;2022-09-20T07:55:55;14.10;99.90
17266;DHT22;8749;47.076;15.412;2022-09-20T07:58:22;14.10;99.90
17266;DHT22;8749;47.076;15.412;2022-09-20T08:00:51;14.20;99.90
17266;DHT22;8749;47.076;15.412;2022-09-20T08:03:19;14.20;99.90
17266;DHT22;8749;47.076;15.412;2022-09-20T08:05:47;14.30;99.90
17266;DHT22;8749;47.076;15.412;2022-09-20T08:08:14;14.30;99.90
17266;DHT22;8749;47.076;15.412;2022-09-20T08:10:42;14.30;99.90
17266;DHT22;8749;47.076;15.412;2022-09-20T08:13:11;14.30;99.90
17266;DHT22;8749;47.076;15.412;2022-09-20T08:15:38;14.40;99.90
17266;DHT22;8749;47.076;15.412;2022-09-20T08:18:05;14.50;99.90
17266;DHT22;8749;47.076;15.412;2022-09-20T08:20:36;14.50;99.90
17266;DHT22;8749;47.076;15.412;2022-09-20T08:23:04;14.50;99.90
17266;DHT22;8749;47.076;15.412;2022-09-20T08:25:31;14.60;99.90
17266;DHT22;8749;47.076;15.412;2022-09-20T08:27:58;14.70;99.90
17266;DHT22;8749;47.076;15.412;2022-09-20T08:30:25;14.80;99.90
17266;DHT22;8749;47.076;15.412;2022-09-20T08:32:52;14.80;99.90
17266;DHT22;8749;47.076;15.412;2022-09-20T08:35:20;14.80;99.90
17266;DHT22;8749;47.076;15.412;2022-09-20T08:37:53;14.80;99.90
17266;DHT22;8749;47.076;15.412;2022-09-20T08:40:23;14.70;99.90
17266;DHT22;8749;47.076;15.412;2022-09-20T08:42:51;14.80;99.90
17266;DHT22;8749;47.076;15.412;2022-09-20T08:45:21;14.90;99.90
17266;DHT22;8749;47.076;15.412;2022-09-20T08:47:51;15.00;99.90
17266;DHT22;8749;47.076;15.412;2022-09-20T08:50:20;15.10;99.90
17266;DHT22;8749;47.076;15.412;2022-09-20T08:52:48;15.10;99.90
17266;DHT22;8749;47.076;15.412;2022-09-20T08:55:21;15.20;99.90
17266;DHT22;8749;47.076;15.412;2022-09-20T08:57:50;15.30;99.90
17266;DHT22;8749;47.076;15.412;2022-09-20T09:00:20;15.30;99.90
17266;DHT22;8749;47.076;15.412;2022-09-20T09:02:49;15.40;99.90
17266;DHT22;8749;47.076;15.412;2022-09-20T09:05:30;15.50;99.90
17266;DHT22;8749;47.076;15.412;2022-09-20T09:07:58;15.50;99.90
17266;DHT22;8749;47.076;15.412;2022-09-20T09:10:28;15.60;99.90
17266;DHT22;8749;47.076;15.412;2022-09-20T09:13:01;15.60;99.90
17266;DHT22;8749;47.076;15.412;2022-09-20T09:15:31;15.60;99.90
17266;DHT22;8749;47.076;15.412;2022-09-20T09:17:59;15.50;99.90
17266;DHT22;8749;47.076;15.412;2022-09-20T09:20:26;15.60;99.90
17266;DHT22;8749;47.076;15.412;2022-09-20T09:23:01;15.50;99.90
17266;DHT22;8749;47.076;15.412;2022-09-20T09:25:31;15.60;99.90
17266;DHT22;8749;47.076;15.412;2022-09-20T09:28:01;15.70;99.90
17266;DHT22;8749;47.076;15.412;2022-09-20T09:30:32;15.70;99.90
17266;DHT22;8749;47.076;15.412;2022-09-20T09:33:18;15.80;99.70
17266;DHT22;8749;47.076;15.412;2022-09-20T09:35:52;15.80;98.30
17266;DHT22;8749;47.076;15.412;2022-09-20T09:38:21;15.70;98.70
17266;DHT22;8749;47.076;15.412;2022-09-20T09:40:51;15.70;98.80
17266;DHT22;8749;47.076;15.412;2022-09-20T09:43:21;15.80;99.10
17266;DHT22;8749;47.076;15.412;2022-09-20T09:45:52;15.90;98.70
17266;DHT22;8749;47.076;15.412;2022-09-20T09:48:23;16.00;98.30
17266;DHT22;8749;47.076;15.412;2022-09-20T09:51:06;16.00;98.10
17266;DHT22;8749;47.076;15.412;2022-09-20T09:53:34;15.90;97.70
17266;DHT22;8749;47.076;15.412;2022-09-20T09:56:15;15.80;97.70
17266;DHT22;8749;47.076;15.412;2022-09-20T09:58:56;15.80;98.00
17266;DHT22;8749;47.076;15.412;2022-09-20T10:01:40;15.90;97.60
17266;DHT22;8749;47.076;15.412;2022-09-20T10:04:14;16.00;97.10
17266;DHT22;8749;47.076;15.412;2022-09-20T10:06:47;15.90;95.80
17266;DHT22;8749;47.076;15.412;2022-09-20T10:09:35;15.80;96.30
17266;DHT22;8749;47.076;15.412;2022-09-20T10:12:18;15.80;96.90
17266;DHT22;8749;47.076;15.412;2022-09-20T10:15:09;15.90;97.00
17266;DHT22;8749;47.076;15.412;2022-09-20T10:17:50;16.00;96.60
17266;DHT22;8749;47.076;15.412;2022-09-20T10:20:30;16.10;96.50
17266;DHT22;8749;47.076;15.412;2022-09-20T10:23:09;16.10;96.40
17266;DHT22;8749;47.076;15.412;2022-09-20T10:25:44;16.10;96.30
17266;DHT22;8749;47.076;15.412;2022-09-20T10:28:27;16.10;96.40
17266;DHT22;8749;47.076;15.412;2022-09-20T10:31:05;16.10;96.60
17266;DHT22;8749;47.076;15.412;2022-09-20T10:33:42;16.20;96.60
17266;DHT22;8749;47.076;15.412;2022-09-20T10:36:17;16.30;96.60
17266;DHT22;8749;47.076;15.412;2022-09-20T10:38:55;16.40;96.70
17266;DHT22;8749;47.076;15.412;2022-09-20T10:41:42;16.60;96.40
17266;DHT22;8749;47.076;15.412;2022-09-20T10:44:49;16.70;96.40
17266;DHT22;8749;47.076;15.412;2022-09-20T10:47:26;16.80;95.90
17266;DHT22;8749;47.076;15.412;2022-09-20T10:50:05;17.00;95.70
17266;DHT22;8749;47.076;15.412;2022-09-20T10:55:28;17.40;95.60
17266;DHT22;8749;47.076;15.412;2022-09-20T11:00:59;18.00;93.10
17266;DHT22;8749;47.076;15.412;2022-09-20T11:03:42;18.20;92.80
17266;DHT22;8749;47.076;15.412;2022-09-20T11:06:16;18.40;92.50
17266;DHT22;8749;47.076;15.412;2022-09-20T11:08:46;18.30;91.30
17266;DHT22;8749;47.076;15.412;2022-09-20T11:11:19;18.00;92.00
17266;DHT22;8749;47.076;15.412;2022-09-20T11:13:55;17.80;92.30
17266;DHT22;8749;47.076;15.412;2022-09-20T11:16:32;17.60;91.90
17266;DHT22;8749;47.076;15.412;2022-09-20T11:19:08;17.20;92.50
17266;DHT22;8749;47.076;15.412;2022-09-20T11:21:42;16.90;93.30
17266;DHT22;8749;47.076;15.412;2022-09-20T11:24:26;16.90;93.40
17266;DHT22;8749;47.076;15.412;2022-09-20T11:26:57;16.80;92.10
17266;DHT22;8749;47.076;15.412;2022-09-20T11:29:29;16.80;91.30
17266;DHT22;8749;47.076;15.412;2022-09-20T11:32:07;16.90;91.00
17266;DHT22;8749;47.076;15.412;2022-09-20T11:34:50;17.00;91.40
17266;DHT22;8749;47.076;15.412;2022-09-20T11:37:21;17.30;91.30
17266;DHT22;8749;47.076;15.412;2022-09-20T11:39:52;17.50;91.10
17266;DHT22;8749;47.076;15.412;2022-09-20T11:42:22;17.70;90.10
17266;DHT22;8749;47.076;15.412;2022-09-20T11:44:51;17.60;89.60
17266;DHT22;8749;47.076;15.412;2022-09-20T11:47:23;17.50;90.20
17266;DHT22;8749;47.076;15.412;2022-09-20T11:50:09;17.60;90.20
17266;DHT22;8749;47.076;15.412;2022-09-20T11:52:52;17.40;91.20
17266;DHT22;8749;47.076;15.412;2022-09-20T11:55:33;16.90;93.50
17266;DHT22;8749;47.076;15.412;2022-09-20T11:58:04;16.60;94.90
17266;DHT22;8749;47.076;15.412;2022-09-20T12:00:35;17.00;94.20
17266;DHT22;8749;47.076;15.412;2022-09-20T12:03:07;17.70;94.90
17266;DHT22;8749;47.076;15.412;2022-09-20T12:05:45;18.00;93.50
17266;DHT22;8749;47.076;15.412;2022-09-20T12:08:20;17.80;90.80
17266;DHT22;8749;47.076;15.412;2022-09-20T12:10:56;17.80;91.10
17266;DHT22;8749;47.076;15.412;2022-09-20T12:13:25;17.70;91.10
17266;DHT22;8749;47.076;15.412;2022-09-20T12:15:58;17.60;91.70
17266;DHT22;8749;47.076;15.412;2022-09-20T12:18:46;17.70;91.40
17266;DHT22;8749;47.076;15.412;2022-09-20T12:21:15;18.00;91.20
17266;DHT22;8749;47.076;15.412;2022-09-20T12:24:16;18.20;90.50
17266;DHT22;8749;47.076;15.412;2022-09-20T12:26:45;18.20;89.90
17266;DHT22;8749;47.076;15.412;2022-09-20T12:32:50;18.00;90.50
17266;DHT22;8749;47.076;15.412;2022-09-20T12:35:55;17.90;90.40
17266;DHT22;8749;47.076;15.412;2022-09-20T12:38:33;17.70;90.90
17266;DHT22;8749;47.076;15.412;2022-09-20T12:41:06;17.50;90.70
17266;DHT22;8749;47.076;15.412;2022-09-20T12:43:38;17.70;90.80
17266;DHT22;8749;47.076;15.412;2022-09-20T12:46:23;17.80;90.50
17266;DHT22;8749;47.076;15.412;2022-09-20T12:48:52;17.90;90.70
17266;DHT22;8749;47.076;15.412;2022-09-20T12:51:37;18.20;90.10
17266;DHT22;8749;47.076;15.412;2022-09-20T12:54:21;18.60;89.30
17266;DHT22;8749;47.076;15.412;2022-09-20T12:56:50;19.10;88.10
17266;DHT22;8749;47.076;15.412;2022-09-20T12:59:23;19.40;86.40
17266;DHT22;8749;47.076;15.412;2022-09-20T13:01:55;19.50;86.00
17266;DHT22;8749;47.076;15.412;2022-09-20T13:04:53;19.50;86.50
17266;DHT22;8749;47.076;15.412;2022-09-20T13:07:55;19.70;85.60
17266;DHT22;8749;47.076;15.412;2022-09-20T13:10:38;19.90;84.50
17266;DHT22;8749;47.076;15.412;2022-09-20T13:13:29;19.60;84.30
17266;DHT22;8749;47.076;15.412;2022-09-20T13:15:57;19.50;83.60
17266;DHT22;8749;47.076;15.412;2022-09-20T13:18:26;19.00;84.60
17266;DHT22;8749;47.076;15.412;2022-09-20T13:20:55;18.60;84.80
17266;DHT22;8749;47.076;15.412;2022-09-20T13:23:27;19.10;85.80
17266;DHT22;8749;47.076;15.412;2022-09-20T13:25:55;19.30;85.10
17266;DHT22;8749;47.076;15.412;2022-09-20T13:28:33;24.80;76.70
17266;DHT22;8749;47.076;15.412;2022-09-20T13:31:24;24.70;77.20
17266;DHT22;8749;47.076;15.412;2022-09-20T13:33:52;28.50;69.80
17266;DHT22;8749;47.076;15.412;2022-09-20T13:36:24;29.70;58.80
17266;DHT22;8749;47.076;15.412;2022-09-20T13:38:55;30.10;58.00
17266;DHT22;8749;47.076;15.412;2022-09-20T13:43:53;35.00;79.30
17266;DHT22;8749;47.076;15.412;2022-09-20T13:46:23;36.70;47.00
17266;DHT22;8749;47.076;15.412;2022-09-20T13:49:05;37.70;43.40
17266;DHT22;8749;47.076;15.412;2022-09-20T13:51:35;37.80;40.50
17266;DHT22;8749;47.076;15.412;2022-09-20T13:54:20;39.40;38.90
17266;DHT22;8749;47.076;15.412;2022-09-20T13:56:50;40.20;37.20
17266;DHT22;8749;47.076;15.412;2022-09-20T13:59:18;39.20;36.20
17266;DHT22;8749;47.076;15.412;2022-09-20T14:01:49;37.50;38.20
17266;DHT22;8749;47.076;15.412;2022-09-20T14:04:19;37.50;36.80
17266;DHT22;8749;47.076;15.412;2022-09-20T14:06:48;38.90;35.60
17266;DHT22;8749;47.076;15.412;2022-09-20T14:09:22;38.10;36.20
17266;DHT22;8749;47.076;15.412;2022-09-20T14:11:52;39.40;34.60
17266;DHT22;8749;47.076;15.412;2022-09-20T14:14:19;39.40;33.00
17266;DHT22;8749;47.076;15.412;2022-09-20T14:16:47;38.60;34.10
17266;DHT22;8749;47.076;15.412;2022-09-20T14:19:18;39.30;34.70
17266;DHT22;8749;47.076;15.412;2022-09-20T14:21:47;40.40;32.00
17266;DHT22;8749;47.076;15.412;2022-09-20T14:24:27;39.00;31.90
17266;DHT22;8749;47.076;15.412;2022-09-20T14:27:03;38.00;31.30
17266;DHT22;8749;47.076;15.412;2022-09-20T14:29:37;36.90;34.20
17266;DHT22;8749;47.076;15.412;2022-09-20T14:32:09;37.50;34.00
17266;DHT22;8749;47.076;15.412;2022-09-20T14:34:38;36.40;33.90
17266;DHT22;8749;47.076;15.412;2022-09-20T14:37:11;35.20;35.20
17266;DHT22;8749;47.076;15.412;2022-09-20T14:39:48;35.20;34.60
17266;DHT22;8749;47.076;15.412;2022-09-20T14:42:19;32.70;36.70
17266;DHT22;8749;47.076;15.412;2022-09-20T14:44:49;30.60;39.10
17266;DHT22;8749;47.076;15.412;2022-09-20T14:47:24;29.00;40.60
17266;DHT22;8749;47.076;15.412;2022-09-20T14:49:51;27.70;42.30
17266;DHT22;8749;47.076;15.412;2022-09-20T14:52:30;28.30;42.00
17266;DHT22;8749;47.076;15.412;2022-09-20T14:55:01;28.20;42.80
17266;DHT22;8749;47.076;15.412;2022-09-20T14:57:29;27.40;42.50
17266;DHT22;8749;47.076;15.412;2022-09-20T14:59:56;27.50;42.90
17266;DHT22;8749;47.076;15.412;2022-09-20T15:02:24;28.90;41.70
17266;DHT22;8749;47.076;15.412;2022-09-20T15:04:54;30.70;40.10
17266;DHT22;8749;47.076;15.412;2022-09-20T15:07:21;31.10;39.10
17266;DHT22;8749;47.076;15.412;2022-09-20T15:09:48;30.70;39.90
17266;DHT22;8749;47.076;15.412;2022-09-20T15:12:18;30.30;39.90
17266;DHT22;8749;47.076;15.412;2022-09-20T15:14:46;29.70;41.60
17266;DHT22;8749;47.076;15.412;2022-09-20T15:17:16;30.40;40.70
17266;DHT22;8749;47.076;15.412;2022-09-20T15:19:43;29.50;41.20
17266;DHT22;8749;47.076;15.412;2022-09-20T15:22:10;28.60;42.30
17266;DHT22;8749;47.076;15.412;2022-09-20T15:24:37;27.90;43.10
17266;DHT22;8749;47.076;15.412;2022-09-20T15:27:04;26.20;44.90
17266;DHT22;8749;47.076;15.412;2022-09-20T15:29:33;24.70;47.30
17266;DHT22;8749;47.076;15.412;2022-09-20T15:32:00;23.80;48.70
17266;DHT22;8749;47.076;15.412;2022-09-20T15:36:55;22.10;51.10
17266;DHT22;8749;47.076;15.412;2022-09-20T15:39:22;21.40;53.20
17266;DHT22;8749;47.076;15.412;2022-09-20T15:41:50;20.60;54.80
17266;DHT22;8749;47.076;15.412;2022-09-20T15:44:17;20.00;56.00
17266;DHT22;8749;47.076;15.412;2022-09-20T15:46:46;19.60;57.30
17266;DHT22;8749;47.076;15.412;2022-09-20T15:49:15;19.30;58.20
17266;DHT22;8749;47.076;15.412;2022-09-20T15:51:42;19.30;59.10
17266;DHT22;8749;47.076;15.412;2022-09-20T15:54:12;18.90;59.40
17266;DHT22;8749;47.076;15.412;2022-09-20T15:56:40;18.70;60.80
17266;DHT22;8749;47.076;15.412;2022-09-20T15:59:09;18.40;61.40
17266;DHT22;8749;47.076;15.412;2022-09-20T16:01:37;18.00;62.50
17266;DHT22;8749;47.076;15.412;2022-09-20T16:04:06;17.80;63.40
17266;DHT22;8749;47.076;15.412;2022-09-20T16:06:35;17.60;64.70
17266;DHT22;8749;47.076;15.412;2022-09-20T16:09:02;17.40;65.50
17266;DHT22;8749;47.076;15.412;2022-09-20T16:11:30;17.10;66.30
17266;DHT22;8749;47.076;15.412;2022-09-20T16:13:58;17.00;67.00
17266;DHT22;8749;47.076;15.412;2022-09-20T16:16:27;16.90;67.10
17266;DHT22;8749;47.076;15.412;2022-09-20T16:18:54;16.80;67.70
17266;DHT22;8749;47.076;15.412;2022-09-20T16:21:41;16.70;68.20
17266;DHT22;8749;47.076;15.412;2022-09-20T16:24:09;16.60;68.00
17266;DHT22;8749;47.076;15.412;2022-09-20T16:26:37;16.40;68.10
17266;DHT22;8749;47.076;15.412;2022-09-20T16:31:35;16.10;67.80
17266;DHT22;8749;47.076;15.412;2022-09-20T16:34:09;15.90;68.90
17266;DHT22;8749;47.076;15.412;2022-09-20T16:36:36;15.90;69.30
17266;DHT22;8749;47.076;15.412;2022-09-20T16:39:07;15.80;69.60
17266;DHT22;8749;47.076;15.412;2022-09-20T16:41:34;15.80;70.20
17266;DHT22;8749;47.076;15.412;2022-09-20T16:44:02;15.70;70.50
17266;DHT22;8749;47.076;15.412;2022-09-20T16:46:29;15.70;71.00
17266;DHT22;8749;47.076;15.412;2022-09-20T16:48:57;15.70;71.20
17266;DHT22;8749;47.076;15.412;2022-09-20T16:51:31;15.60;71.30
17266;DHT22;8749;47.076;15.412;2022-09-20T16:54:01;15.60;71.80